sensor_id;sensor_type;location;lat;lon;timestamp;pressure;altitude;pressure_sealevel;temperature;humidity
19676;BME280;39539;52.202;9.876;2023-07-20T00:01:34;100623.19;;;15.44;100.00
19676;BME280;39539;52.202;9.876;2023-07-20T00:03:59;100618.88;;;15.43;100.00
19676;BME280;39539;52.202;9.876;2023-07-20T00:06:25;100620.50;;;15.44;100.00
19676;BME280;39539;52.202;9.876;2023-07-20T00:08:53;100621.22;;;15.39;100.00
19676;BME280;39539;52.202;9.876;2023-07-20T00:11:18;100604.50;;;15.32;100.00
19676;BME280;39539;52.202;9.876;2023-07-20T00:13:44;100618.78;;;15.38;100.00
19676;BME280;39539;52.202;9.876;2023-07-20T00:16:09;100611.78;;;15.37;100.00
19676;BME280;39539;52.202;9.876;2023-07-20T00:18:35;100615.84;;;15.39;100.00
19676;BME280;39539;52.202;9.876;2023-07-20T00:21:00;100612.47;;;15.44;100.00
19676;BME280;39539;52.202;9.876;2023-07-20T00:23:27;100609.78;;;15.44;100.00
19676;BME280;39539;52.202;9.876;2023-07-20T00:25:53;100611.66;;;15.43;100.00
19676;BME280;39539;52.202;9.876;2023-07-20T00:28:19;100606.06;;;15.45;100.00
19676;BME280;39539;52.202;9.876;2023-07-20T00:30:44;100605.50;;;15.43;100.00
19676;BME280;39539;52.202;9.876;2023-07-20T00:33:10;100600.13;;;15.43;100.00
19676;BME280;39539;52.202;9.876;2023-07-20T00:35:37;100604.44;;;15.44;100.00
19676;BME280;39539;52.202;9.876;2023-07-20T00:38:03;100605.94;;;15.40;100.00
19676;BME280;39539;52.202;9.876;2023-07-20T00:40:28;100607.50;;;15.36;100.00
19676;BME280;39539;52.202;9.876;2023-07-20T00:42:54;100606.84;;;15.29;100.00
19676;BME280;39539;52.202;9.876;2023-07-20T00:45:19;100596.25;;;15.22;100.00
19676;BME280;39539;52.202;9.876;2023-07-20T00:47:45;100589.78;;;15.18;100.00
19676;BME280;39539;52.202;9.876;2023-07-20T00:50:10;100601.28;;;15.18;100.00
19676;BME280;39539;52.202;9.876;2023-07-20T00:52:37;100605.16;;;15.11;100.00
19676;BME280;39539;52.202;9.876;2023-07-20T00:55:04;100600.53;;;15.06;100.00
19676;BME280;39539;52.202;9.876;2023-07-20T00:57:30;100604.13;;;15.00;100.00
19676;BME280;39539;52.202;9.876;2023-07-20T00:59:55;100607.38;;;15.02;100.00
19676;BME280;39539;52.202;9.876;2023-07-20T01:02:21;100604.59;;;14.97;100.00
19676;BME280;39539;52.202;9.876;2023-07-20T01:04:46;100599.34;;;15.02;100.00
19676;BME280;39539;52.202;9.876;2023-07-20T01:07:19;100614.63;;;15.01;100.00
19676;BME280;39539;52.202;9.876;2023-07-20T01:10:02;100615.31;;;14.97;100.00
19676;BME280;39539;52.202;9.876;2023-07-20T01:12:35;100611.25;;;14.94;100.00
19676;BME280;39539;52.202;9.876;2023-07-20T01:15:01;100612.88;;;14.95;100.00
19676;BME280;39539;52.202;9.876;2023-07-20T01:17:26;100607.09;;;14.87;100.00
19676;BME280;39539;52.202;9.876;2023-07-20T01:19:52;100611.88;;;14.85;100.00
19676;BME280;39539;52.202;9.876;2023-07-20T01:33:27;100618.28;;;14.72;100.00
19676;BME280;39539;52.202;9.876;2023-07-20T01:35:56;100617.13;;;14.68;100.00
19676;BME280;39539;52.202;9.876;2023-07-20T01:38:23;100610.63;;;14.64;100.00
19676;BME280;39539;52.202;9.876;2023-07-20T01:40:49;100618.41;;;14.65;100.00
19676;BME280;39539;52.202;9.876;2023-07-20T01:43:15;100613.19;;;14.58;100.00
19676;BME280;39539;52.202;9.876;2023-07-20T01:45:41;100610.75;;;14.57;100.00
19676;BME280;39539;52.202;9.876;2023-07-20T01:48:06;100626.31;;;14.60;100.00
19676;BME280;39539;52.202;9.876;2023-07-20T01:50:31;100625.66;;;14.53;100.00
19676;BME280;39539;52.202;9.876;2023-07-20T01:52:57;100619.50;;;14.52;100.00
19676;BME280;39539;52.202;9.876;2023-07-20T01:55:23;100612.94;;;14.48;100.00
19676;BME280;39539;52.202;9.876;2023-07-20T01:57:48;100617.94;;;14.45;100.00
19676;BME280;39539;52.202;9.876;2023-07-20T02:00:14;100611.31;;;14.47;100.00
19676;BME280;39539;52.202;9.876;2023-07-20T02:02:39;100606.78;;;14.48;100.00
19676;BME280;39539;52.202;9.876;2023-07-20T02:05:05;100615.00;;;14.46;100.00
19676;BME280;39539;52.202;9.876;2023-07-20T02:07:30;100611.88;;;14.37;100.00
19676;BME280;39539;52.202;9.876;2023-07-20T02:09:56;100620.75;;;14.38;100.00
19676;BME280;39539;52.202;9.876;2023-07-20T02:12:21;100600.38;;;14.25;100.00
19676;BME280;39539;52.202;9.876;2023-07-20T02:14:46;100615.38;;;14.26;100.00
19676;BME280;39539;52.202;9.876;2023-07-20T02:17:12;100616.44;;;14.25;100.00
19676;BME280;39539;52.202;9.876;2023-07-20T02:19:37;100618.03;;;14.26;100.00
19676;BME280;39539;52.202;9.876;2023-07-20T02:22:03;100616.56;;;14.30;100.00
19676;BME280;39539;52.202;9.876;2023-07-20T02:24:29;100615.50;;;14.31;100.00
19676;BME280;39539;52.202;9.876;2023-07-20T02:26:54;100620.38;;;14.34;100.00
19676;BME280;39539;52.202;9.876;2023-07-20T02:29:20;100615.97;;;14.28;100.00
19676;BME280;39539;52.202;9.876;2023-07-20T02:31:45;100614.91;;;14.29;100.00
19676;BME280;39539;52.202;9.876;2023-07-20T02:34:10;100607.59;;;14.36;100.00
19676;BME280;39539;52.202;9.876;2023-07-20T02:36:36;100607.34;;;14.50;100.00
19676;BME280;39539;52.202;9.876;2023-07-20T02:39:01;100626.31;;;14.60;100.00
19676;BME280;39539;52.202;9.876;2023-07-20T02:41:33;100601.56;;;14.53;100.00
19676;BME280;39539;52.202;9.876;2023-07-20T02:43:58;100622.03;;;14.59;100.00
19676;BME280;39539;52.202;9.876;2023-07-20T02:46:23;100622.63;;;14.61;100.00
19676;BME280;39539;52.202;9.876;2023-07-20T02:48:49;100621.19;;;14.70;100.00
19676;BME280;39539;52.202;9.876;2023-07-20T02:51:14;100614.22;;;14.69;100.00
19676;BME280;39539;52.202;9.876;2023-07-20T02:53:39;100624.31;;;14.79;100.00
19676;BME280;39539;52.202;9.876;2023-07-20T02:56:05;100604.22;;;14.65;100.00
19676;BME280;39539;52.202;9.876;2023-07-20T02:58:30;100628.41;;;14.81;100.00
19676;BME280;39539;52.202;9.876;2023-07-20T03:00:55;100620.84;;;14.78;100.00
19676;BME280;39539;52.202;9.876;2023-07-20T03:03:21;100621.88;;;14.77;100.00
19676;BME280;39539;52.202;9.876;2023-07-20T03:05:46;100608.97;;;14.74;100.00
19676;BME280;39539;52.202;9.876;2023-07-20T03:08:11;100624.66;;;14.82;100.00
19676;BME280;39539;52.202;9.876;2023-07-20T03:10:40;100618.63;;;14.75;100.00
19676;BME280;39539;52.202;9.876;2023-07-20T03:13:06;100627.69;;;14.86;100.00
19676;BME280;39539;52.202;9.876;2023-07-20T03:15:32;100628.97;;;14.84;100.00
19676;BME280;39539;52.202;9.876;2023-07-20T03:17:57;100621.75;;;14.84;100.00
19676;BME280;39539;52.202;9.876;2023-07-20T03:20:23;100623.16;;;14.87;100.00
19676;BME280;39539;52.202;9.876;2023-07-20T03:22:49;100618.81;;;14.86;100.00
19676;BME280;39539;52.202;9.876;2023-07-20T03:25:14;100615.13;;;14.87;100.00
19676;BME280;39539;52.202;9.876;2023-07-20T03:27:39;100604.41;;;14.87;100.00
19676;BME280;39539;52.202;9.876;2023-07-20T03:30:06;100613.00;;;14.89;100.00
19676;BME280;39539;52.202;9.876;2023-07-20T03:32:32;100609.03;;;14.91;100.00
19676;BME280;39539;52.202;9.876;2023-07-20T03:34:57;100608.34;;;14.96;100.00
19676;BME280;39539;52.202;9.876;2023-07-20T03:37:23;100616.22;;;15.02;100.00
19676;BME280;39539;52.202;9.876;2023-07-20T03:39:48;100613.81;;;15.01;100.00
19676;BME280;39539;52.202;9.876;2023-07-20T03:42:14;100624.41;;;14.96;100.00
19676;BME280;39539;52.202;9.876;2023-07-20T03:44:39;100618.56;;;14.99;100.00
19676;BME280;39539;52.202;9.876;2023-07-20T03:47:05;100612.75;;;15.02;100.00
19676;BME280;39539;52.202;9.876;2023-07-20T03:49:30;100597.38;;;15.09;100.00
19676;BME280;39539;52.202;9.876;2023-07-20T03:51:55;100615.75;;;15.17;100.00
19676;BME280;39539;52.202;9.876;2023-07-20T03:54:21;100610.38;;;15.17;100.00
19676;BME280;39539;52.202;9.876;2023-07-20T03:56:46;100600.47;;;15.18;100.00
19676;BME280;39539;52.202;9.876;2023-07-20T03:59:11;100592.09;;;15.14;100.00
19676;BME280;39539;52.202;9.876;2023-07-20T04:01:37;100603.72;;;15.20;100.00
19676;BME280;39539;52.202;9.876;2023-07-20T04:04:06;100609.75;;;15.27;100.00
19676;BME280;39539;52.202;9.876;2023-07-20T04:06:32;100612.38;;;15.39;100.00
19676;BME280;39539;52.202;9.876;2023-07-20T04:08:57;100612.47;;;15.44;100.00
19676;BME280;39539;52.202;9.876;2023-07-20T04:11:23;100617.34;;;15.47;100.00
19676;BME280;39539;52.202;9.876;2023-07-20T04:13:48;100601.66;;;15.39;100.00
19676;BME280;39539;52.202;9.876;2023-07-20T04:16:13;100609.63;;;15.50;100.00
19676;BME280;39539;52.202;9.876;2023-07-20T04:18:39;100608.34;;;15.53;100.00
19676;BME280;39539;52.202;9.876;2023-07-20T04:21:04;100614.75;;;15.52;100.00
19676;BME280;39539;52.202;9.876;2023-07-20T04:23:30;100620.22;;;15.57;100.00
19676;BME280;39539;52.202;9.876;2023-07-20T04:25:55;100611.59;;;15.55;100.00
19676;BME280;39539;52.202;9.876;2023-07-20T04:28:20;100617.06;;;15.60;100.00
19676;BME280;39539;52.202;9.876;2023-07-20T04:30:49;100621.34;;;15.61;100.00
19676;BME280;39539;52.202;9.876;2023-07-20T04:33:18;100628.25;;;15.57;100.00
19676;BME280;39539;52.202;9.876;2023-07-20T04:35:53;100622.97;;;15.62;100.00
19676;BME280;39539;52.202;9.876;2023-07-20T04:38:19;100603.56;;;15.55;100.00
19676;BME280;39539;52.202;9.876;2023-07-20T04:40:46;100628.09;;;15.64;100.00
19676;BME280;39539;52.202;9.876;2023-07-20T04:43:12;100636.47;;;15.67;100.00
19676;BME280;39539;52.202;9.876;2023-07-20T04:45:39;100632.16;;;15.66;100.00
19676;BME280;39539;52.202;9.876;2023-07-20T04:48:11;100634.03;;;15.66;100.00
19676;BME280;39539;52.202;9.876;2023-07-20T04:50:37;100639.25;;;15.73;100.00
19676;BME280;39539;52.202;9.876;2023-07-20T04:53:04;100638.94;;;15.69;100.00
19676;BME280;39539;52.202;9.876;2023-07-20T04:55:30;100639.75;;;15.69;100.00
19676;BME280;39539;52.202;9.876;2023-07-20T04:57:55;100632.88;;;15.62;100.00
19676;BME280;39539;52.202;9.876;2023-07-20T05:00:21;100643.94;;;15.65;100.00
19676;BME280;39539;52.202;9.876;2023-07-20T05:02:46;100649.22;;;15.60;100.00
19676;BME280;39539;52.202;9.876;2023-07-20T05:05:14;100644.34;;;15.57;100.00
19676;BME280;39539;52.202;9.876;2023-07-20T05:07:39;100651.53;;;15.57;100.00
19676;BME280;39539;52.202;9.876;2023-07-20T05:10:05;100646.44;;;15.55;100.00
19676;BME280;39539;52.202;9.876;2023-07-20T05:12:31;100658.53;;;15.58;100.00
19676;BME280;39539;52.202;9.876;2023-07-20T05:14:56;100652.75;;;15.49;100.00
19676;BME280;39539;52.202;9.876;2023-07-20T05:17:21;100648.25;;;15.38;100.00
19676;BME280;39539;52.202;9.876;2023-07-20T05:19:47;100647.09;;;15.34;100.00
19676;BME280;39539;52.202;9.876;2023-07-20T05:22:13;100649.53;;;15.35;100.00
19676;BME280;39539;52.202;9.876;2023-07-20T05:24:38;100641.56;;;15.23;100.00
19676;BME280;39539;52.202;9.876;2023-07-20T05:27:05;100654.78;;;15.30;100.00
19676;BME280;39539;52.202;9.876;2023-07-20T05:29:31;100661.53;;;15.33;100.00
19676;BME280;39539;52.202;9.876;2023-07-20T05:31:57;100663.63;;;15.31;100.00
19676;BME280;39539;52.202;9.876;2023-07-20T05:34:22;100656.88;;;15.28;100.00
19676;BME280;39539;52.202;9.876;2023-07-20T05:37:10;100657.03;;;15.21;100.00
19676;BME280;39539;52.202;9.876;2023-07-20T05:39:36;100654.97;;;15.12;100.00
19676;BME280;39539;52.202;9.876;2023-07-20T05:42:01;100663.03;;;15.12;100.00
19676;BME280;39539;52.202;9.876;2023-07-20T05:44:26;100655.56;;;15.02;100.00
19676;BME280;39539;52.202;9.876;2023-07-20T05:46:52;100658.50;;;15.00;100.00
19676;BME280;39539;52.202;9.876;2023-07-20T05:49:17;100666.50;;;15.12;100.00
19676;BME280;39539;52.202;9.876;2023-07-20T05:51:42;100665.69;;;15.12;100.00
19676;BME280;39539;52.202;9.876;2023-07-20T05:54:08;100658.84;;;15.04;100.00
19676;BME280;39539;52.202;9.876;2023-07-20T05:56:33;100672.34;;;15.09;100.00
19676;BME280;39539;52.202;9.876;2023-07-20T05:58:58;100668.59;;;15.10;100.00
19676;BME280;39539;52.202;9.876;2023-07-20T06:01:24;100676.75;;;15.15;100.00
19676;BME280;39539;52.202;9.876;2023-07-20T06:03:52;100679.16;;;15.17;100.00
19676;BME280;39539;52.202;9.876;2023-07-20T06:06:18;100669.72;;;15.14;100.00
19676;BME280;39539;52.202;9.876;2023-07-20T06:08:43;100686.50;;;15.21;100.00
19676;BME280;39539;52.202;9.876;2023-07-20T06:11:11;100674.81;;;15.27;100.00
19676;BME280;39539;52.202;9.876;2023-07-20T06:13:38;100674.81;;;15.27;100.00
19676;BME280;39539;52.202;9.876;2023-07-20T06:16:03;100680.03;;;15.46;100.00
19676;BME280;39539;52.202;9.876;2023-07-20T06:18:29;100679.81;;;15.64;100.00
19676;BME280;39539;52.202;9.876;2023-07-20T06:20:57;100678.78;;;15.94;100.00
19676;BME280;39539;52.202;9.876;2023-07-20T06:23:23;100683.31;;;16.27;100.00
19676;BME280;39539;52.202;9.876;2023-07-20T06:25:49;100691.31;;;16.39;100.00
19676;BME280;39539;52.202;9.876;2023-07-20T06:28:14;100685.78;;;16.46;100.00
19676;BME280;39539;52.202;9.876;2023-07-20T06:30:40;100696.16;;;16.59;100.00
19676;BME280;39539;52.202;9.876;2023-07-20T06:33:05;100682.50;;;16.60;100.00
19676;BME280;39539;52.202;9.876;2023-07-20T06:35:32;100678.88;;;16.72;100.00
19676;BME280;39539;52.202;9.876;2023-07-20T06:37:57;100668.06;;;16.67;100.00
19676;BME280;39539;52.202;9.876;2023-07-20T06:40:26;100677.34;;;16.76;100.00
19676;BME280;39539;52.202;9.876;2023-07-20T06:42:52;100688.47;;;17.01;100.00
19676;BME280;39539;52.202;9.876;2023-07-20T06:45:17;100695.44;;;17.02;100.00
19676;BME280;39539;52.202;9.876;2023-07-20T06:47:43;100689.81;;;17.04;100.00
19676;BME280;39539;52.202;9.876;2023-07-20T06:50:09;100688.78;;;17.05;100.00
19676;BME280;39539;52.202;9.876;2023-07-20T06:52:36;100684.19;;;17.05;100.00
19676;BME280;39539;52.202;9.876;2023-07-20T06:55:02;100671.97;;;17.15;100.00
19676;BME280;39539;52.202;9.876;2023-07-20T06:57:28;100684.38;;;17.21;100.00
19676;BME280;39539;52.202;9.876;2023-07-20T06:59:53;100685.59;;;17.30;100.00
19676;BME280;39539;52.202;9.876;2023-07-20T07:02:19;100687.84;;;17.38;100.00
19676;BME280;39539;52.202;9.876;2023-07-20T07:04:45;100685.50;;;17.47;100.00
19676;BME280;39539;52.202;9.876;2023-07-20T07:07:14;100693.47;;;17.64;100.00
19676;BME280;39539;52.202;9.876;2023-07-20T07:09:40;100691.38;;;17.71;100.00
19676;BME280;39539;52.202;9.876;2023-07-20T07:12:06;100705.41;;;18.00;100.00
19676;BME280;39539;52.202;9.876;2023-07-20T07:14:31;100693.09;;;18.04;100.00
19676;BME280;39539;52.202;9.876;2023-07-20T07:16:57;100691.94;;;18.27;100.00
19676;BME280;39539;52.202;9.876;2023-07-20T07:19:23;100689.38;;;18.90;100.00
19676;BME280;39539;52.202;9.876;2023-07-20T07:21:48;100694.19;;;19.41;99.77
19676;BME280;39539;52.202;9.876;2023-07-20T07:24:13;100687.16;;;19.35;98.23
19676;BME280;39539;52.202;9.876;2023-07-20T07:26:39;100679.53;;;19.16;99.57
19676;BME280;39539;52.202;9.876;2023-07-20T07:29:05;100683.25;;;20.34;95.44
19676;BME280;39539;52.202;9.876;2023-07-20T07:31:33;100687.19;;;22.37;84.19
19676;BME280;39539;52.202;9.876;2023-07-20T07:33:59;100685.59;;;23.70;78.27
19676;BME280;39539;52.202;9.876;2023-07-20T07:36:24;100675.75;;;25.00;70.07
19676;BME280;39539;52.202;9.876;2023-07-20T07:38:50;100672.56;;;26.07;65.96
19676;BME280;39539;52.202;9.876;2023-07-20T07:41:17;100662.28;;;26.35;62.25
19676;BME280;39539;52.202;9.876;2023-07-20T07:43:44;100666.09;;;25.80;63.32
19676;BME280;39539;52.202;9.876;2023-07-20T07:46:10;100646.53;;;25.05;64.40
19676;BME280;39539;52.202;9.876;2023-07-20T07:48:35;100641.63;;;24.80;66.82
19676;BME280;39539;52.202;9.876;2023-07-20T07:51:00;100642.94;;;25.46;65.11
19676;BME280;39539;52.202;9.876;2023-07-20T07:53:26;100633.34;;;26.96;60.87
19676;BME280;39539;52.202;9.876;2023-07-20T07:55:52;100643.22;;;28.40;55.56
19676;BME280;39539;52.202;9.876;2023-07-20T07:58:19;100634.81;;;29.55;54.63
19676;BME280;39539;52.202;9.876;2023-07-20T08:00:44;100631.09;;;30.75;51.75
19676;BME280;39539;52.202;9.876;2023-07-20T08:03:12;100612.59;;;30.35;49.41
19676;BME280;39539;52.202;9.876;2023-07-20T08:05:38;100622.06;;;30.38;48.04
19676;BME280;39539;52.202;9.876;2023-07-20T08:08:07;100603.88;;;32.07;47.15
19676;BME280;39539;52.202;9.876;2023-07-20T08:10:34;100599.13;;;34.83;42.71
19676;BME280;39539;52.202;9.876;2023-07-20T08:12:59;100586.09;;;34.54;40.35
19676;BME280;39539;52.202;9.876;2023-07-20T08:15:25;100580.25;;;32.89;43.21
19676;BME280;39539;52.202;9.876;2023-07-20T08:17:50;100558.44;;;30.97;45.31
19676;BME280;39539;52.202;9.876;2023-07-20T08:20:17;100572.06;;;31.62;46.09
19676;BME280;39539;52.202;9.876;2023-07-20T08:22:43;100564.28;;;32.59;45.18
19676;BME280;39539;52.202;9.876;2023-07-20T08:25:11;100556.50;;;33.00;42.62
19676;BME280;39539;52.202;9.876;2023-07-20T08:27:38;100539.28;;;32.01;43.67
19676;BME280;39539;52.202;9.876;2023-07-20T08:30:04;100530.81;;;29.46;46.67
19676;BME280;39539;52.202;9.876;2023-07-20T08:32:32;100552.72;;;27.68;51.83
19676;BME280;39539;52.202;9.876;2023-07-20T08:34:59;100549.31;;;26.10;56.51
19676;BME280;39539;52.202;9.876;2023-07-20T08:37:24;100569.34;;;28.10;55.17
19676;BME280;39539;52.202;9.876;2023-07-20T08:39:50;100579.66;;;30.35;50.17
19676;BME280;39539;52.202;9.876;2023-07-20T08:42:16;100563.34;;;29.48;47.22
19676;BME280;39539;52.202;9.876;2023-07-20T08:44:43;100556.22;;;28.04;49.17
19676;BME280;39539;52.202;9.876;2023-07-20T08:47:16;100557.47;;;30.16;48.19
19676;BME280;39539;52.202;9.876;2023-07-20T08:49:42;100558.59;;;32.87;44.10
19676;BME280;39539;52.202;9.876;2023-07-20T08:52:09;100551.06;;;34.88;40.52
19676;BME280;39539;52.202;9.876;2023-07-20T08:54:37;100546.19;;;35.42;38.67
19676;BME280;39539;52.202;9.876;2023-07-20T08:57:06;100553.41;;;34.06;38.02
19676;BME280;39539;52.202;9.876;2023-07-20T08:59:36;100555.50;;;33.28;40.10
19676;BME280;39539;52.202;9.876;2023-07-20T09:02:04;100551.19;;;34.69;39.13
19676;BME280;39539;52.202;9.876;2023-07-20T09:04:32;100549.44;;;36.47;37.59
19676;BME280;39539;52.202;9.876;2023-07-20T09:06:59;100540.19;;;36.91;35.35
19676;BME280;39539;52.202;9.876;2023-07-20T09:09:24;100540.41;;;37.70;33.65
19676;BME280;39539;52.202;9.876;2023-07-20T09:11:50;100551.13;;;38.29;34.00
19676;BME280;39539;52.202;9.876;2023-07-20T09:14:16;100540.25;;;37.05;33.88
19676;BME280;39539;52.202;9.876;2023-07-20T09:17:00;100545.56;;;37.68;33.75
19676;BME280;39539;52.202;9.876;2023-07-20T09:19:33;100539.38;;;39.09;33.44
19676;BME280;39539;52.202;9.876;2023-07-20T09:22:05;100537.25;;;38.25;34.34
19676;BME280;39539;52.202;9.876;2023-07-20T09:24:31;100529.31;;;37.48;33.60
19676;BME280;39539;52.202;9.876;2023-07-20T09:27:01;100539.53;;;37.26;32.64
19676;BME280;39539;52.202;9.876;2023-07-20T09:29:30;100536.28;;;38.93;32.97
19676;BME280;39539;52.202;9.876;2023-07-20T09:32:00;100532.47;;;39.91;31.01
19676;BME280;39539;52.202;9.876;2023-07-20T09:34:29;100524.66;;;40.58;30.75
19676;BME280;39539;52.202;9.876;2023-07-20T09:37:01;100530.28;;;40.54;29.58
19676;BME280;39539;52.202;9.876;2023-07-20T09:39:28;100523.53;;;40.86;29.00
19676;BME280;39539;52.202;9.876;2023-07-20T09:41:54;100536.75;;;40.78;30.32
19676;BME280;39539;52.202;9.876;2023-07-20T09:44:27;100524.75;;;40.09;29.75
19676;BME280;39539;52.202;9.876;2023-07-20T09:46:53;100529.84;;;40.56;30.03
19676;BME280;39539;52.202;9.876;2023-07-20T09:49:19;100504.13;;;40.03;29.29
19676;BME280;39539;52.202;9.876;2023-07-20T09:51:45;100516.50;;;39.99;28.70
19676;BME280;39539;52.202;9.876;2023-07-20T09:54:11;100520.34;;;40.84;30.19
19676;BME280;39539;52.202;9.876;2023-07-20T09:56:38;100514.19;;;39.90;30.29
19676;BME280;39539;52.202;9.876;2023-07-20T09:59:04;100526.38;;;39.58;30.85
19676;BME280;39539;52.202;9.876;2023-07-20T10:01:32;100519.00;;;38.28;31.17
19676;BME280;39539;52.202;9.876;2023-07-20T10:03:58;100501.72;;;36.06;31.89
19676;BME280;39539;52.202;9.876;2023-07-20T10:06:28;100515.75;;;33.94;33.96
19676;BME280;39539;52.202;9.876;2023-07-20T10:08:56;100517.53;;;31.80;35.49
19676;BME280;39539;52.202;9.876;2023-07-20T10:11:27;100530.72;;;30.37;38.73
19676;BME280;39539;52.202;9.876;2023-07-20T10:13:56;100533.84;;;29.66;40.31
19676;BME280;39539;52.202;9.876;2023-07-20T10:16:50;100549.72;;;31.64;39.84
19676;BME280;39539;52.202;9.876;2023-07-20T10:19:35;100554.50;;;33.17;37.26
19676;BME280;39539;52.202;9.876;2023-07-20T10:22:26;100557.84;;;33.91;34.98
19676;BME280;39539;52.202;9.876;2023-07-20T10:24:52;100558.53;;;35.18;35.11
19676;BME280;39539;52.202;9.876;2023-07-20T10:27:24;100547.66;;;36.17;32.04
19676;BME280;39539;52.202;9.876;2023-07-20T10:29:51;100523.34;;;34.81;33.03
19676;BME280;39539;52.202;9.876;2023-07-20T10:32:19;100514.75;;;32.79;34.27
19676;BME280;39539;52.202;9.876;2023-07-20T10:34:53;100503.25;;;31.15;36.39
19676;BME280;39539;52.202;9.876;2023-07-20T10:37:52;100516.06;;;29.72;38.88
19676;BME280;39539;52.202;9.876;2023-07-20T10:40:37;100517.91;;;28.72;41.82
19676;BME280;39539;52.202;9.876;2023-07-20T10:43:08;100520.69;;;28.63;42.49
19676;BME280;39539;52.202;9.876;2023-07-20T10:48:13;100520.53;;;28.30;44.27
19676;BME280;39539;52.202;9.876;2023-07-20T10:50:39;100531.88;;;28.11;45.17
19676;BME280;39539;52.202;9.876;2023-07-20T10:53:17;100530.16;;;27.42;44.07
19676;BME280;39539;52.202;9.876;2023-07-20T10:55:44;100532.88;;;26.98;47.76
19676;BME280;39539;52.202;9.876;2023-07-20T10:58:13;100535.16;;;27.22;49.45
19676;BME280;39539;52.202;9.876;2023-07-20T11:01:01;100549.25;;;27.50;45.11
19676;BME280;39539;52.202;9.876;2023-07-20T11:03:30;100547.66;;;27.41;45.21
19676;BME280;39539;52.202;9.876;2023-07-20T11:05:57;100546.00;;;26.70;44.18
19676;BME280;39539;52.202;9.876;2023-07-20T11:08:40;100534.59;;;26.51;45.16
19676;BME280;39539;52.202;9.876;2023-07-20T11:11:29;100535.50;;;25.97;47.32
19676;BME280;39539;52.202;9.876;2023-07-20T11:14:00;100539.44;;;25.83;46.35
19676;BME280;39539;52.202;9.876;2023-07-20T11:16:40;100534.28;;;25.59;48.95
19676;BME280;39539;52.202;9.876;2023-07-20T11:19:28;100543.53;;;25.80;49.62
19676;BME280;39539;52.202;9.876;2023-07-20T11:21:55;100552.47;;;25.72;48.00
19676;BME280;39539;52.202;9.876;2023-07-20T11:24:22;100556.41;;;25.35;48.86
19676;BME280;39539;52.202;9.876;2023-07-20T11:26:50;100556.56;;;25.02;49.88
19676;BME280;39539;52.202;9.876;2023-07-20T11:29:18;100563.56;;;24.94;48.35
19676;BME280;39539;52.202;9.876;2023-07-20T11:31:45;100561.38;;;24.69;49.39
19676;BME280;39539;52.202;9.876;2023-07-20T11:34:14;100556.16;;;24.58;51.96
19676;BME280;39539;52.202;9.876;2023-07-20T11:36:49;100559.88;;;24.35;50.92
19676;BME280;39539;52.202;9.876;2023-07-20T11:39:16;100558.94;;;24.26;52.04
19676;BME280;39539;52.202;9.876;2023-07-20T11:41:49;100559.63;;;23.90;51.83
19676;BME280;39539;52.202;9.876;2023-07-20T11:44:16;100550.84;;;23.79;52.68
19676;BME280;39539;52.202;9.876;2023-07-20T11:46:44;100555.06;;;23.85;53.93
19676;BME280;39539;52.202;9.876;2023-07-20T11:49:10;100561.16;;;24.10;55.57
19676;BME280;39539;52.202;9.876;2023-07-20T11:51:36;100567.81;;;24.59;53.31
19676;BME280;39539;52.202;9.876;2023-07-20T11:54:03;100556.28;;;25.03;52.81
19676;BME280;39539;52.202;9.876;2023-07-20T11:56:30;100560.03;;;25.30;52.94
19676;BME280;39539;52.202;9.876;2023-07-20T11:58:57;100568.47;;;25.42;52.11
19676;BME280;39539;52.202;9.876;2023-07-20T12:01:28;100553.78;;;25.29;48.29
19676;BME280;39539;52.202;9.876;2023-07-20T12:04:03;100551.66;;;24.90;51.67
19676;BME280;39539;52.202;9.876;2023-07-20T12:06:29;100548.50;;;24.47;51.31
19676;BME280;39539;52.202;9.876;2023-07-20T12:08:56;100538.81;;;24.27;51.67
19676;BME280;39539;52.202;9.876;2023-07-20T12:11:36;100541.44;;;24.04;51.99
19676;BME280;39539;52.202;9.876;2023-07-20T12:14:08;100539.38;;;23.82;53.17
19676;BME280;39539;52.202;9.876;2023-07-20T12:16:35;100538.31;;;23.64;54.33
19676;BME280;39539;52.202;9.876;2023-07-20T12:19:05;100542.53;;;23.38;55.83
19676;BME280;39539;52.202;9.876;2023-07-20T12:21:31;100540.88;;;23.04;55.78
19676;BME280;39539;52.202;9.876;2023-07-20T12:23:58;100545.41;;;23.27;56.87
19676;BME280;39539;52.202;9.876;2023-07-20T12:26:47;100546.13;;;23.66;56.48
19676;BME280;39539;52.202;9.876;2023-07-20T12:29:28;100554.41;;;24.21;56.79
19676;BME280;39539;52.202;9.876;2023-07-20T12:31:53;100552.44;;;24.54;56.27
19676;BME280;39539;52.202;9.876;2023-07-20T12:34:19;100542.03;;;24.70;56.10
19676;BME280;39539;52.202;9.876;2023-07-20T12:36:44;100537.63;;;24.60;53.61
19676;BME280;39539;52.202;9.876;2023-07-20T12:39:11;100539.63;;;24.69;54.64
19676;BME280;39539;52.202;9.876;2023-07-20T12:41:36;100547.63;;;24.87;53.84
19676;BME280;39539;52.202;9.876;2023-07-20T12:44:03;100546.22;;;24.90;52.97
19676;BME280;39539;52.202;9.876;2023-07-20T12:46:28;100540.28;;;24.88;53.22
19676;BME280;39539;52.202;9.876;2023-07-20T12:49:03;100535.19;;;24.59;53.37
19676;BME280;39539;52.202;9.876;2023-07-20T12:51:29;100540.25;;;24.52;53.50
19676;BME280;39539;52.202;9.876;2023-07-20T12:53:56;100535.22;;;24.45;54.05
19676;BME280;39539;52.202;9.876;2023-07-20T12:56:22;100525.84;;;24.37;51.56
19676;BME280;39539;52.202;9.876;2023-07-20T12:58:47;100528.09;;;24.49;52.41
19676;BME280;39539;52.202;9.876;2023-07-20T13:01:16;100529.94;;;24.76;52.27